createdAt,value
2023-03-20T00:01:14.720Z,26.08
2023-03-20T00:03:41.948Z,27.17
2023-03-20T00:06:21.711Z,22.88
2023-03-20T00:08:51.870Z,25.38
2023-03-20T00:11:34.624Z,26.40
2023-03-20T00:14:06.553Z,22.38
2023-03-20T00:16:36.188Z,29.35
2023-03-20T00:19:04.166Z,21.38
2023-03-20T00:21:31.929Z,24.60
2023-03-20T00:23:59.287Z,26.73
2023-03-20T00:26:31.188Z,26.42
2023-03-20T00:28:58.168Z,26.27
2023-03-20T00:31:29.748Z,23.20
2023-03-20T00:34:01.751Z,28.92
2023-03-20T00:36:29.040Z,24.48
2023-03-20T00:38:59.494Z,26.92
2023-03-20T00:41:44.408Z,23.23
2023-03-20T00:44:42.405Z,25.35
2023-03-20T00:47:19.030Z,27.75
2023-03-20T00:49:48.177Z,26.88
2023-03-20T00:52:17.351Z,23.08
2023-03-20T00:54:44.341Z,24.20
2023-03-20T00:57:14.113Z,29.23
2023-03-20T00:59:50.949Z,26.65
2023-03-20T01:02:18.053Z,27.65
2023-03-20T01:04:45.216Z,27.85
2023-03-20T01:07:15.360Z,31.27
2023-03-20T01:09:42.618Z,27.00
2023-03-20T01:12:12.664Z,30.58
2023-03-20T01:14:42.138Z,26.38
2023-03-20T01:17:19.890Z,25.90
2023-03-20T01:19:47.920Z,30.85
2023-03-20T01:22:15.011Z,28.73
2023-03-20T01:24:42.189Z,26.42
2023-03-20T01:27:14.446Z,24.92
2023-03-20T01:29:42.257Z,25.48
2023-03-20T01:32:15.237Z,30.70
2023-03-20T01:34:44.994Z,30.10
2023-03-20T01:37:18.692Z,27.48
2023-03-20T01:39:46.162Z,27.38
2023-03-20T01:42:16.450Z,30.05
2023-03-20T01:44:44.569Z,27.92
2023-03-20T01:47:21.474Z,31.38
2023-03-20T01:50:19.530Z,25.95
2023-03-20T01:52:50.835Z,28.67
2023-03-20T01:55:18.491Z,29.70
2023-03-20T01:57:54.787Z,26.25
2023-03-20T02:00:24.020Z,33.78
2023-03-20T02:02:51.938Z,31.27
2023-03-20T02:05:55.902Z,33.08
2023-03-20T02:08:31.826Z,27.77
2023-03-20T02:11:04.464Z,27.30
2023-03-20T02:13:33.016Z,32.47
2023-03-20T02:16:05.935Z,26.35
2023-03-20T02:18:53.850Z,32.38
2023-03-20T02:21:54.061Z,29.95
2023-03-20T02:24:39.738Z,31.58
2023-03-20T02:30:11.676Z,31.05
2023-03-20T02:33:01.290Z,32.25
2023-03-20T02:35:49.612Z,31.55
2023-03-20T02:38:44.246Z,31.45
2023-03-20T02:41:26.341Z,35.22
2023-03-20T02:44:20.759Z,37.67
2023-03-20T02:47:05.736Z,39.20
2023-03-20T02:49:41.630Z,35.03
2023-03-20T02:52:40.984Z,35.08
2023-03-20T02:55:34.782Z,33.28
2023-03-20T02:58:07.938Z,37.55
2023-03-20T03:00:40.435Z,35.08
2023-03-20T03:03:24.459Z,38.97
2023-03-20T03:05:58.809Z,36.95
2023-03-20T03:08:30.232Z,34.90
2023-03-20T03:11:08.822Z,32.28
2023-03-20T03:13:41.963Z,38.28
2023-03-20T03:16:16.593Z,35.72
2023-03-20T03:18:46.828Z,35.88
2023-03-20T03:21:17.632Z,32.10
2023-03-20T03:23:49.363Z,36.97
2023-03-20T03:26:29.213Z,34.67
2023-03-20T03:29:02.257Z,32.30
2023-03-20T03:31:31.883Z,36.15
2023-03-20T03:34:01.535Z,39.13
2023-03-20T03:36:47.059Z,35.85
2023-03-20T03:39:52.269Z,37.05
2023-03-20T03:42:43.700Z,36.88
2023-03-20T03:45:25.150Z,33.42
2023-03-20T03:48:00.403Z,33.33
2023-03-20T03:50:40.385Z,35.28
2023-03-20T03:53:12.924Z,38.58
2023-03-20T03:55:46.052Z,31.50
2023-03-20T03:58:19.414Z,31.52
2023-03-20T04:00:50.697Z,36.97
2023-03-20T04:03:21.307Z,34.72
2023-03-20T04:05:49.884Z,33.92
2023-03-20T04:08:16.931Z,34.92
2023-03-20T04:10:44.652Z,31.75
2023-03-20T04:13:12.009Z,31.88
2023-03-20T04:15:39.199Z,39.30
2023-03-20T04:18:07.958Z,34.65
2023-03-20T04:20:35.937Z,39.90
2023-03-20T04:23:05.889Z,30.00
2023-03-20T04:25:33.130Z,37.03
2023-03-20T04:28:00.289Z,32.47
2023-03-20T04:30:39.856Z,32.78
2023-03-20T04:33:32.372Z,35.13
2023-03-20T04:36:07.060Z,33.80
2023-03-20T04:38:34.151Z,36.15
2023-03-20T04:41:01.956Z,32.63
2023-03-20T04:43:29.179Z,34.25
2023-03-20T04:45:56.463Z,34.17
2023-03-20T04:48:24.130Z,29.55
2023-03-20T04:50:51.598Z,31.60
2023-03-20T04:53:26.720Z,30.95
2023-03-20T04:55:55.312Z,30.15
2023-03-20T04:58:23.755Z,31.73
2023-03-20T05:00:51.049Z,35.97
2023-03-20T05:03:18.138Z,34.53
2023-03-20T05:05:45.575Z,35.35
2023-03-20T05:08:12.934Z,36.28
2023-03-20T05:10:40.820Z,32.38
2023-03-20T05:13:26.211Z,35.60
2023-03-20T05:16:01.452Z,30.73
2023-03-20T05:18:42.815Z,31.27
2023-03-20T05:21:39.265Z,30.85
2023-03-20T05:24:27.584Z,33.08
2023-03-20T05:27:32.784Z,28.98
2023-03-20T05:30:12.452Z,31.35
2023-03-20T05:32:43.938Z,28.15
2023-03-20T05:35:29.143Z,35.30
2023-03-20T05:38:16.138Z,34.50
2023-03-20T05:41:01.359Z,28.20
2023-03-20T05:43:46.855Z,34.90
2023-03-20T05:46:34.187Z,34.58
2023-03-20T05:49:21.504Z,36.45
2023-03-20T05:52:07.430Z,34.05
2023-03-20T05:54:52.649Z,37.92
2023-03-20T05:57:38.338Z,28.58
2023-03-20T06:00:26.132Z,38.00
2023-03-20T06:03:13.216Z,39.03
2023-03-20T06:05:59.544Z,40.45
2023-03-20T06:08:26.574Z,38.58
2023-03-20T06:10:57.864Z,37.65
2023-03-20T06:13:25.246Z,37.92
2023-03-20T06:15:52.662Z,44.58
2023-03-20T06:18:19.974Z,47.35
2023-03-20T06:20:53.915Z,41.13
2023-03-20T06:23:21.257Z,43.47
2023-03-20T06:25:48.669Z,40.58
2023-03-20T06:28:17.053Z,36.28
2023-03-20T06:30:44.793Z,37.30
2023-03-20T06:33:17.066Z,38.25
2023-03-20T06:35:58.165Z,37.80
2023-03-20T06:38:27.448Z,37.58
2023-03-20T06:40:54.894Z,40.35
2023-03-20T06:43:23.071Z,39.03
2023-03-20T06:45:54.137Z,39.50
2023-03-20T06:48:27.078Z,36.80
2023-03-20T06:50:54.854Z,44.22
2023-03-20T06:53:27.239Z,32.40
2023-03-20T06:56:11.196Z,43.10
2023-03-20T06:58:40.579Z,34.97
2023-03-20T07:01:17.349Z,37.97
2023-03-20T07:03:45.249Z,39.15
2023-03-20T07:06:13.562Z,42.13
2023-03-20T07:08:40.768Z,38.70
2023-03-20T07:11:08.437Z,34.42
2023-03-20T07:13:35.718Z,34.72
2023-03-20T07:16:12.504Z,38.22
2023-03-20T07:18:41.563Z,38.75
2023-03-20T07:21:09.105Z,41.92
2023-03-20T07:23:37.283Z,34.05
2023-03-20T07:26:05.617Z,31.35
2023-03-20T07:28:34.153Z,37.55
2023-03-20T07:31:23.592Z,34.17
2023-03-20T07:33:58.073Z,37.17
2023-03-20T07:36:25.593Z,36.45
2023-03-20T07:38:52.522Z,39.38
2023-03-20T07:41:19.573Z,43.10
2023-03-20T07:43:57.329Z,39.45
2023-03-20T07:46:25.621Z,38.13
2023-03-20T07:48:53.982Z,38.72
2023-03-20T07:51:21.033Z,35.22
2023-03-20T07:53:48.052Z,36.17
2023-03-20T07:56:15.013Z,33.42
2023-03-20T07:58:42.139Z,33.15
2023-03-20T08:01:09.085Z,33.30
2023-03-20T08:03:36.266Z,31.80
2023-03-20T08:06:06.526Z,36.15
2023-03-20T08:08:34.105Z,33.47
2023-03-20T08:11:01.605Z,40.20
2023-03-20T08:13:28.628Z,40.58
2023-03-20T08:15:55.789Z,31.25
2023-03-20T08:18:22.894Z,29.90
2023-03-20T08:20:52.922Z,34.13
2023-03-20T08:23:20.865Z,38.53
2023-03-20T08:25:49.597Z,30.65
2023-03-20T08:28:17.303Z,39.10
2023-03-20T08:30:44.647Z,31.55
2023-03-20T08:33:12.239Z,37.88
2023-03-20T08:35:39.440Z,31.45
2023-03-20T08:38:06.455Z,26.65
2023-03-20T08:40:33.476Z,31.92
2023-03-20T08:43:00.539Z,32.42
2023-03-20T08:45:27.522Z,35.53
2023-03-20T08:47:55.123Z,31.63
2023-03-20T08:50:22.792Z,39.38
2023-03-20T08:52:49.797Z,33.58
2023-03-20T08:55:17.354Z,30.42
2023-03-20T08:57:44.416Z,43.13
2023-03-20T09:00:14.515Z,26.92
2023-03-20T09:02:43.088Z,28.80
2023-03-20T09:05:11.270Z,30.83
2023-03-20T09:07:38.609Z,29.70
2023-03-20T09:10:06.150Z,27.50
2023-03-20T09:12:33.620Z,31.10
2023-03-20T09:15:01.398Z,28.60
2023-03-20T09:17:28.515Z,30.73
2023-03-20T09:19:55.590Z,30.73
2023-03-20T09:22:22.566Z,28.40
2023-03-20T09:24:49.530Z,30.42
2023-03-20T09:27:16.614Z,29.75
2023-03-20T09:29:44.008Z,22.45
2023-03-20T09:32:15.103Z,25.90
2023-03-20T09:34:42.668Z,25.95
2023-03-20T09:37:09.863Z,25.98
2023-03-20T09:39:36.956Z,24.02
2023-03-20T09:42:22.070Z,24.48
2023-03-20T09:45:17.920Z,38.22
2023-03-20T09:48:02.686Z,21.77
2023-03-20T09:50:36.783Z,29.63
2023-03-20T09:53:39.030Z,24.83
2023-03-20T09:56:16.677Z,19.20
2023-03-20T09:58:52.335Z,24.27
2023-03-20T10:01:21.130Z,19.58
2023-03-20T10:03:56.288Z,22.90
2023-03-20T10:06:23.568Z,21.27
2023-03-20T10:08:52.146Z,29.90
2023-03-20T10:11:43.003Z,22.67
2023-03-20T10:14:24.328Z,19.70
2023-03-20T10:17:09.821Z,17.95
2023-03-20T10:19:59.196Z,22.70
2023-03-20T10:22:33.019Z,22.77
2023-03-20T10:25:08.958Z,20.58
2023-03-20T10:28:08.253Z,22.67
2023-03-20T10:31:05.808Z,19.70
2023-03-20T10:33:58.530Z,24.80
2023-03-20T10:36:47.406Z,19.55
2023-03-20T10:39:29.587Z,21.33
2023-03-20T10:42:01.316Z,20.63
2023-03-20T10:44:39.019Z,16.55
2023-03-20T10:47:10.295Z,15.00
2023-03-20T10:49:43.096Z,18.63
2023-03-20T10:52:16.845Z,20.13
2023-03-20T10:55:10.478Z,16.10
2023-03-20T10:57:47.565Z,19.15
2023-03-20T11:00:21.494Z,18.02
2023-03-20T11:02:48.786Z,18.52
2023-03-20T11:05:25.266Z,18.90
2023-03-20T11:08:12.608Z,21.25
2023-03-20T11:10:42.076Z,18.10
2023-03-20T11:13:31.972Z,24.65
2023-03-20T11:16:10.737Z,16.83
2023-03-20T11:18:38.265Z,21.45
2023-03-20T11:21:08.679Z,30.27
2023-03-20T11:23:35.944Z,21.25
2023-03-20T11:26:12.055Z,19.10
2023-03-20T11:28:52.229Z,24.95
2023-03-20T11:31:24.941Z,21.90
2023-03-20T11:33:51.995Z,21.27
2023-03-20T11:36:22.132Z,21.50
2023-03-20T11:38:50.741Z,23.33
2023-03-20T11:41:23.003Z,20.15
2023-03-20T11:43:49.973Z,20.52
2023-03-20T11:46:17.082Z,18.20
2023-03-20T11:48:45.980Z,15.35
2023-03-20T11:51:20.260Z,24.58
2023-03-20T11:53:48.214Z,16.70
2023-03-20T11:56:21.476Z,18.23
2023-03-20T11:59:18.382Z,31.17
2023-03-20T12:01:54.115Z,17.27
2023-03-20T12:04:42.071Z,29.05
2023-03-20T12:07:27.337Z,23.67
2023-03-20T12:10:01.258Z,25.38
2023-03-20T12:12:57.918Z,12.85
2023-03-20T12:15:33.221Z,13.43
2023-03-20T12:18:30.965Z,25.95
2023-03-20T12:21:16.213Z,17.40
2023-03-20T12:23:51.579Z,29.70
2023-03-20T12:26:33.556Z,14.00
2023-03-20T12:29:29.627Z,26.33
2023-03-20T12:32:17.138Z,27.17
2023-03-20T12:34:50.611Z,26.50
2023-03-20T12:37:18.603Z,27.70
2023-03-20T12:39:56.734Z,15.15
2023-03-20T12:42:34.806Z,23.95
2023-03-20T12:45:11.346Z,26.23
2023-03-20T12:48:03.275Z,18.55
2023-03-20T12:50:48.233Z,13.88
2023-03-20T12:53:21.191Z,26.95
2023-03-20T12:56:38.146Z,26.58
2023-03-20T13:02:18.005Z,21.60
2023-03-20T13:05:23.341Z,27.70
2023-03-20T13:08:02.709Z,16.08
2023-03-20T13:10:41.776Z,18.08
2023-03-20T13:13:33.744Z,18.25
2023-03-20T13:16:36.997Z,19.80
2023-03-20T13:19:28.596Z,23.48
2023-03-20T13:22:03.066Z,29.48
2023-03-20T13:24:46.914Z,25.45
2023-03-20T13:27:41.481Z,30.58
2023-03-20T13:30:33.488Z,23.63
2023-03-20T13:33:19.164Z,23.75
2023-03-20T13:38:34.148Z,17.42
2023-03-20T13:41:04.262Z,28.38
2023-03-20T13:43:54.480Z,32.45
2023-03-20T13:46:28.919Z,14.75
2023-03-20T13:49:07.976Z,24.93
2023-03-20T13:52:11.907Z,23.80
2023-03-20T13:55:17.469Z,19.75
2023-03-20T13:58:07.209Z,22.97
2023-03-20T14:00:47.623Z,22.98
2023-03-20T14:03:33.122Z,32.40
2023-03-20T14:06:00.201Z,17.67
2023-03-20T14:08:27.085Z,17.75
2023-03-20T14:11:06.286Z,34.05
2023-03-20T14:13:34.948Z,24.73
2023-03-20T14:16:07.869Z,21.35
2023-03-20T14:18:34.973Z,31.75
2023-03-20T14:21:09.765Z,28.08
2023-03-20T14:23:44.494Z,33.83
2023-03-20T14:26:41.984Z,33.60
2023-03-20T14:29:11.676Z,21.27
2023-03-20T14:31:42.250Z,25.52
2023-03-20T14:34:12.307Z,34.13
2023-03-20T14:36:59.538Z,32.55
2023-03-20T14:39:44.697Z,46.20
2023-03-20T14:42:25.004Z,26.58
2023-03-20T14:45:07.375Z,41.25
2023-03-20T14:47:43.228Z,32.67
2023-03-20T14:50:14.671Z,32.17
2023-03-20T14:52:44.291Z,27.15
2023-03-20T14:55:30.586Z,42.25
2023-03-20T14:58:02.287Z,38.50
2023-03-20T15:00:34.674Z,25.65
2023-03-20T15:03:15.699Z,34.78
2023-03-20T15:05:42.946Z,32.38
2023-03-20T15:08:17.354Z,32.17
2023-03-20T15:10:55.574Z,31.20
2023-03-20T15:13:24.903Z,34.90
2023-03-20T15:15:58.818Z,34.30
2023-03-20T15:18:27.753Z,27.92
2023-03-20T15:20:58.509Z,25.00
2023-03-20T15:23:28.846Z,32.22
2023-03-20T15:25:55.878Z,30.67
2023-03-20T15:28:27.756Z,31.77
2023-03-20T15:30:59.463Z,25.83
2023-03-20T15:33:27.875Z,42.97
2023-03-20T15:35:56.350Z,20.27
2023-03-20T15:38:30.357Z,33.30
2023-03-20T15:40:57.826Z,44.88
2023-03-20T15:43:26.880Z,26.83
2023-03-20T15:46:14.099Z,34.35
2023-03-20T15:48:48.899Z,36.67
2023-03-20T15:51:17.263Z,45.55
2023-03-20T15:53:47.713Z,28.73
2023-03-20T15:56:20.536Z,36.25
2023-03-20T15:58:52.669Z,36.08
2023-03-20T16:01:22.816Z,34.08
2023-03-20T16:03:50.964Z,36.65
2023-03-20T16:06:22.794Z,41.10
2023-03-20T16:09:06.920Z,36.05
2023-03-20T16:11:42.808Z,29.77
2023-03-20T16:14:21.575Z,31.67
2023-03-20T16:16:52.622Z,41.70
2023-03-20T16:19:20.357Z,29.95
2023-03-20T16:21:54.712Z,37.90
2023-03-20T16:24:36.018Z,44.42
2023-03-20T16:27:08.472Z,64.03
2023-03-20T16:29:37.376Z,66.10
2023-03-20T16:32:07.881Z,68.25
2023-03-20T16:34:38.061Z,80.22
2023-03-20T16:37:27.815Z,65.05
2023-03-20T16:40:25.281Z,43.17
2023-03-20T16:42:57.449Z,43.42
2023-03-20T16:45:29.515Z,42.63
2023-03-20T16:48:16.415Z,45.80
2023-03-20T16:50:45.568Z,44.20
2023-03-20T16:53:19.580Z,48.67
2023-03-20T16:55:52.078Z,30.10
2023-03-20T16:58:23.335Z,47.80
2023-03-20T17:00:52.500Z,42.80
2023-03-20T17:03:26.468Z,46.72
2023-03-20T17:06:04.862Z,44.95
2023-03-20T17:08:41.621Z,54.40
2023-03-20T17:11:36.595Z,57.95
2023-03-20T17:14:04.587Z,50.95
2023-03-20T17:16:33.327Z,38.28
2023-03-20T17:19:18.111Z,36.28
2023-03-20T17:21:46.651Z,43.60
2023-03-20T17:24:15.954Z,39.17
2023-03-20T17:26:46.387Z,40.78
2023-03-20T17:29:13.965Z,45.25
2023-03-20T17:31:41.026Z,45.35
2023-03-20T17:34:09.698Z,38.33
2023-03-20T17:36:38.530Z,29.38
2023-03-20T17:39:06.187Z,39.08
2023-03-20T17:41:33.308Z,39.97
2023-03-20T17:44:00.606Z,60.05
2023-03-20T17:46:30.492Z,37.50
2023-03-20T17:49:07.485Z,40.67
2023-03-20T17:51:35.529Z,53.00
2023-03-20T17:54:02.553Z,47.28
2023-03-20T17:56:32.773Z,47.42
2023-03-20T17:59:00.974Z,60.85
2023-03-20T18:01:32.162Z,54.03
2023-03-20T18:03:59.661Z,60.28
2023-03-20T18:06:30.493Z,40.83
2023-03-20T18:08:58.925Z,39.55
2023-03-20T18:11:26.938Z,47.75
2023-03-20T18:13:54.040Z,33.90
2023-03-20T18:16:24.267Z,52.58
2023-03-20T18:18:52.666Z,35.00
2023-03-20T18:21:19.841Z,52.35
2023-03-20T18:23:47.178Z,50.13
2023-03-20T18:26:22.845Z,40.17
2023-03-20T18:28:52.256Z,42.35
2023-03-20T18:31:20.291Z,42.55
2023-03-20T18:33:49.291Z,49.90
2023-03-20T18:36:19.086Z,55.63
2023-03-20T18:38:46.485Z,63.03
2023-03-20T18:41:13.596Z,39.50
2023-03-20T18:43:41.283Z,45.95
2023-03-20T18:46:16.648Z,47.75
2023-03-20T18:51:11.293Z,35.80
2023-03-20T18:53:40.789Z,37.67
2023-03-20T18:56:17.777Z,42.03
2023-03-20T18:58:46.123Z,31.98
2023-03-20T19:01:15.630Z,46.75
2023-03-20T19:03:44.285Z,42.83
2023-03-20T19:06:17.873Z,37.72
2023-03-20T19:08:45.877Z,40.10
2023-03-20T19:11:17.894Z,33.67
2023-03-20T19:13:52.301Z,50.67
2023-03-20T19:16:24.662Z,34.90
2023-03-20T19:18:53.657Z,40.65
2023-03-20T19:21:26.226Z,33.35
2023-03-20T19:23:55.316Z,36.33
2023-03-20T19:26:26.546Z,37.08
2023-03-20T19:28:55.722Z,35.80
2023-03-20T19:31:24.236Z,26.65
2023-03-20T19:33:51.906Z,37.78
2023-03-20T19:36:23.180Z,33.35
2023-03-20T19:38:51.715Z,42.47
2023-03-20T19:41:20.026Z,44.72
2023-03-20T19:43:53.144Z,40.58
2023-03-20T19:46:38.726Z,32.90
2023-03-20T19:49:07.197Z,43.50
2023-03-20T19:51:34.290Z,38.45
2023-03-20T19:54:01.334Z,39.80
2023-03-20T19:56:28.388Z,26.27
2023-03-20T19:58:55.604Z,38.33
2023-03-20T20:01:25.377Z,42.95
2023-03-20T20:03:58.321Z,38.85
2023-03-20T20:06:31.164Z,31.42
2023-03-20T20:08:59.416Z,33.85
2023-03-20T20:11:26.440Z,38.33
2023-03-20T20:14:10.303Z,36.40
2023-03-20T20:16:42.678Z,43.78
2023-03-20T20:19:10.263Z,30.88
2023-03-20T20:24:24.516Z,42.92
2023-03-20T20:27:07.052Z,37.03
2023-03-20T20:29:40.365Z,37.72
2023-03-20T20:32:07.642Z,24.65
2023-03-20T20:40:15.629Z,33.58
2023-03-20T20:42:43.353Z,33.47
2023-03-20T20:45:14.769Z,37.10
2023-03-20T20:47:44.948Z,39.38
2023-03-20T20:50:13.933Z,40.78
2023-03-20T20:52:42.724Z,27.42
2023-03-20T20:55:22.453Z,37.17
2023-03-20T20:57:52.447Z,32.72
2023-03-20T21:00:25.903Z,32.28
2023-03-20T21:02:56.834Z,24.58
2023-03-20T21:05:24.170Z,45.25
2023-03-20T21:07:52.629Z,31.23
2023-03-20T21:10:22.045Z,42.17
2023-03-20T21:12:59.144Z,43.63
2023-03-20T21:15:27.534Z,29.65
2023-03-20T21:18:01.068Z,29.42
2023-03-20T21:20:32.556Z,35.63
2023-03-20T21:22:59.974Z,27.63
2023-03-20T21:25:47.013Z,31.90
2023-03-20T21:28:15.223Z,39.63
2023-03-20T21:30:56.491Z,43.78
2023-03-20T21:33:31.122Z,28.67
2023-03-20T21:35:58.324Z,38.70
2023-03-20T21:41:13.377Z,42.50
2023-03-20T21:43:41.131Z,26.90
2023-03-20T21:49:43.661Z,34.42
2023-03-20T21:52:35.968Z,36.25
2023-03-20T21:58:00.187Z,38.83
2023-03-20T22:02:57.047Z,34.67
2023-03-20T22:06:02.522Z,45.72
2023-03-20T22:11:45.134Z,33.75
2023-03-20T22:20:09.202Z,31.98
2023-03-20T22:25:39.158Z,36.67
2023-03-20T22:28:22.419Z,26.65
2023-03-20T22:34:09.876Z,38.00
2023-03-20T22:37:04.522Z,27.92
2023-03-20T22:40:04.179Z,35.08
2023-03-20T22:42:28.552Z,31.75
2023-03-20T22:44:59.915Z,36.38
2023-03-20T22:47:21.241Z,25.33
2023-03-20T22:49:48.241Z,35.03
2023-03-20T22:52:29.079Z,33.22
2023-03-20T22:55:02.065Z,31.23
2023-03-20T22:57:41.289Z,39.35
2023-03-20T23:00:15.382Z,31.83
2023-03-20T23:02:42.768Z,41.97
2023-03-20T23:05:10.670Z,43.78
2023-03-20T23:07:37.996Z,39.88
2023-03-20T23:10:06.242Z,29.95
2023-03-20T23:12:33.618Z,35.67
2023-03-20T23:15:00.754Z,40.83
2023-03-20T23:17:27.798Z,35.63
2023-03-20T23:20:08.568Z,35.05
2023-03-20T23:22:38.436Z,30.92
2023-03-20T23:25:16.381Z,36.78
2023-03-20T23:27:48.144Z,39.30
2023-03-20T23:30:15.571Z,34.10
2023-03-20T23:32:42.862Z,33.05
2023-03-20T23:35:10.457Z,32.13
2023-03-20T23:37:37.465Z,41.95
2023-03-20T23:40:05.243Z,44.75
2023-03-20T23:42:32.321Z,30.48
2023-03-20T23:45:07.184Z,26.75
2023-03-20T23:50:36.513Z,29.92
2023-03-20T23:53:19.556Z,35.50
2023-03-20T23:55:49.086Z,37.78
2023-03-20T23:58:16.472Z,30.50
